sensor_id;sensor_type;location;lat;lon;timestamp;temperature;humidity
20487;DHT22;10402;49.012;8.370;2023-07-13T00:01:28;22.70;58.20
20487;DHT22;10402;49.012;8.370;2023-07-13T00:03:56;22.70;58.40
20487;DHT22;10402;49.012;8.370;2023-07-13T00:06:22;22.60;58.50
20487;DHT22;10402;49.012;8.370;2023-07-13T00:08:56;22.60;58.60
20487;DHT22;10402;49.012;8.370;2023-07-13T00:11:22;22.60;58.60
20487;DHT22;10402;49.012;8.370;2023-07-13T00:13:47;22.50;58.70
20487;DHT22;10402;49.012;8.370;2023-07-13T00:16:13;22.50;58.70
20487;DHT22;10402;49.012;8.370;2023-07-13T00:18:40;22.40;58.80
20487;DHT22;10402;49.012;8.370;2023-07-13T00:21:05;22.40;59.00
20487;DHT22;10402;49.012;8.370;2023-07-13T00:23:33;22.30;59.10
20487;DHT22;10402;49.012;8.370;2023-07-13T00:26:00;22.30;59.10
20487;DHT22;10402;49.012;8.370;2023-07-13T00:28:25;22.20;59.10
20487;DHT22;10402;49.012;8.370;2023-07-13T00:30:51;22.20;59.10
20487;DHT22;10402;49.012;8.370;2023-07-13T00:33:17;22.20;59.20
20487;DHT22;10402;49.012;8.370;2023-07-13T00:35:42;22.20;59.20
20487;DHT22;10402;49.012;8.370;2023-07-13T00:38:09;22.20;59.20
20487;DHT22;10402;49.012;8.370;2023-07-13T00:40:35;22.20;59.10
20487;DHT22;10402;49.012;8.370;2023-07-13T00:43:00;22.20;59.10
20487;DHT22;10402;49.012;8.370;2023-07-13T00:47:52;22.10;59.20
20487;DHT22;10402;49.012;8.370;2023-07-13T00:50:20;22.10;59.20
20487;DHT22;10402;49.012;8.370;2023-07-13T00:52:49;22.00;59.20
20487;DHT22;10402;49.012;8.370;2023-07-13T00:55:16;22.00;59.40
20487;DHT22;10402;49.012;8.370;2023-07-13T00:57:43;21.90;59.40
20487;DHT22;10402;49.012;8.370;2023-07-13T01:00:09;22.00;59.50
20487;DHT22;10402;49.012;8.370;2023-07-13T01:02:38;21.90;59.60
20487;DHT22;10402;49.012;8.370;2023-07-13T01:05:11;21.80;59.60
20487;DHT22;10402;49.012;8.370;2023-07-13T01:07:37;21.80;59.50
20487;DHT22;10402;49.012;8.370;2023-07-13T01:10:03;21.80;59.50
20487;DHT22;10402;49.012;8.370;2023-07-13T01:12:29;21.80;59.50
20487;DHT22;10402;49.012;8.370;2023-07-13T01:15:00;21.70;59.40
20487;DHT22;10402;49.012;8.370;2023-07-13T01:17:27;21.70;59.40
20487;DHT22;10402;49.012;8.370;2023-07-13T01:19:53;21.70;59.50
20487;DHT22;10402;49.012;8.370;2023-07-13T01:22:19;21.60;59.70
20487;DHT22;10402;49.012;8.370;2023-07-13T01:24:51;21.60;59.70
20487;DHT22;10402;49.012;8.370;2023-07-13T01:27:21;21.50;59.80
20487;DHT22;10402;49.012;8.370;2023-07-13T01:29:47;21.50;60.00
20487;DHT22;10402;49.012;8.370;2023-07-13T01:32:19;21.60;59.90
20487;DHT22;10402;49.012;8.370;2023-07-13T01:34:51;21.70;59.80
20487;DHT22;10402;49.012;8.370;2023-07-13T01:37:19;21.60;59.60
20487;DHT22;10402;49.012;8.370;2023-07-13T01:39:45;21.50;59.80
20487;DHT22;10402;49.012;8.370;2023-07-13T01:42:12;21.50;59.90
20487;DHT22;10402;49.012;8.370;2023-07-13T01:44:38;21.50;59.80
20487;DHT22;10402;49.012;8.370;2023-07-13T01:47:03;21.50;59.80
20487;DHT22;10402;49.012;8.370;2023-07-13T01:49:29;21.50;59.90
20487;DHT22;10402;49.012;8.370;2023-07-13T01:51:55;21.50;60.00
20487;DHT22;10402;49.012;8.370;2023-07-13T01:54:20;21.50;59.80
20487;DHT22;10402;49.012;8.370;2023-07-13T01:56:46;21.60;59.70
20487;DHT22;10402;49.012;8.370;2023-07-13T01:59:11;21.60;59.50
20487;DHT22;10402;49.012;8.370;2023-07-13T02:01:37;21.70;59.40
20487;DHT22;10402;49.012;8.370;2023-07-13T02:04:03;21.70;59.20
20487;DHT22;10402;49.012;8.370;2023-07-13T02:06:28;21.60;59.10
20487;DHT22;10402;49.012;8.370;2023-07-13T02:08:54;21.60;59.20
20487;DHT22;10402;49.012;8.370;2023-07-13T02:11:20;21.60;59.20
20487;DHT22;10402;49.012;8.370;2023-07-13T02:13:45;21.70;59.10
20487;DHT22;10402;49.012;8.370;2023-07-13T02:16:11;21.70;59.00
20487;DHT22;10402;49.012;8.370;2023-07-13T02:18:37;21.60;58.90
20487;DHT22;10402;49.012;8.370;2023-07-13T02:21:03;21.60;58.90
20487;DHT22;10402;49.012;8.370;2023-07-13T02:23:29;21.60;58.90
20487;DHT22;10402;49.012;8.370;2023-07-13T02:25:56;21.60;58.80
20487;DHT22;10402;49.012;8.370;2023-07-13T02:28:23;21.60;58.80
20487;DHT22;10402;49.012;8.370;2023-07-13T02:30:48;21.60;58.90
20487;DHT22;10402;49.012;8.370;2023-07-13T02:33:14;21.60;58.90
20487;DHT22;10402;49.012;8.370;2023-07-13T02:35:43;21.70;58.90
20487;DHT22;10402;49.012;8.370;2023-07-13T02:38:09;21.60;58.90
20487;DHT22;10402;49.012;8.370;2023-07-13T02:40:34;21.60;59.00
20487;DHT22;10402;49.012;8.370;2023-07-13T02:43:01;21.50;59.00
20487;DHT22;10402;49.012;8.370;2023-07-13T02:45:27;21.50;59.00
20487;DHT22;10402;49.012;8.370;2023-07-13T02:47:53;21.40;59.20
20487;DHT22;10402;49.012;8.370;2023-07-13T02:50:19;21.30;59.50
20487;DHT22;10402;49.012;8.370;2023-07-13T02:52:44;21.20;59.80
20487;DHT22;10402;49.012;8.370;2023-07-13T02:55:10;21.10;60.00
20487;DHT22;10402;49.012;8.370;2023-07-13T02:57:35;21.00;60.30
20487;DHT22;10402;49.012;8.370;2023-07-13T03:00:03;21.00;60.60
20487;DHT22;10402;49.012;8.370;2023-07-13T03:02:32;20.90;61.10
20487;DHT22;10402;49.012;8.370;2023-07-13T03:04:58;20.80;61.30
20487;DHT22;10402;49.012;8.370;2023-07-13T03:07:24;20.80;61.40
20487;DHT22;10402;49.012;8.370;2023-07-13T03:09:55;20.80;61.60
20487;DHT22;10402;49.012;8.370;2023-07-13T03:12:20;20.80;61.60
20487;DHT22;10402;49.012;8.370;2023-07-13T03:14:46;20.90;61.50
20487;DHT22;10402;49.012;8.370;2023-07-13T03:17:11;20.90;61.50
20487;DHT22;10402;49.012;8.370;2023-07-13T03:19:37;20.90;61.50
20487;DHT22;10402;49.012;8.370;2023-07-13T03:22:03;20.90;61.50
20487;DHT22;10402;49.012;8.370;2023-07-13T03:24:29;20.80;61.40
20487;DHT22;10402;49.012;8.370;2023-07-13T03:26:54;20.90;61.50
20487;DHT22;10402;49.012;8.370;2023-07-13T03:29:20;20.90;61.50
20487;DHT22;10402;49.012;8.370;2023-07-13T03:31:46;20.90;61.50
20487;DHT22;10402;49.012;8.370;2023-07-13T03:34:12;20.90;61.50
20487;DHT22;10402;49.012;8.370;2023-07-13T03:36:37;20.90;61.30
20487;DHT22;10402;49.012;8.370;2023-07-13T03:39:03;20.90;61.10
20487;DHT22;10402;49.012;8.370;2023-07-13T03:41:29;21.00;61.00
20487;DHT22;10402;49.012;8.370;2023-07-13T03:43:56;21.00;60.80
20487;DHT22;10402;49.012;8.370;2023-07-13T03:46:22;21.00;60.80
20487;DHT22;10402;49.012;8.370;2023-07-13T03:48:48;20.90;61.00
20487;DHT22;10402;49.012;8.370;2023-07-13T03:51:15;20.90;61.20
20487;DHT22;10402;49.012;8.370;2023-07-13T03:53:43;20.80;61.40
20487;DHT22;10402;49.012;8.370;2023-07-13T03:56:09;20.80;61.30
20487;DHT22;10402;49.012;8.370;2023-07-13T03:58:38;20.80;61.60
20487;DHT22;10402;49.012;8.370;2023-07-13T04:01:05;20.80;61.50
20487;DHT22;10402;49.012;8.370;2023-07-13T04:03:32;20.80;61.50
20487;DHT22;10402;49.012;8.370;2023-07-13T04:05:59;20.80;61.80
20487;DHT22;10402;49.012;8.370;2023-07-13T04:08:43;20.70;62.20
20487;DHT22;10402;49.012;8.370;2023-07-13T04:11:09;20.60;62.50
20487;DHT22;10402;49.012;8.370;2023-07-13T04:13:34;20.50;62.70
20487;DHT22;10402;49.012;8.370;2023-07-13T04:16:00;20.50;62.90
20487;DHT22;10402;49.012;8.370;2023-07-13T04:18:26;20.50;63.10
20487;DHT22;10402;49.012;8.370;2023-07-13T04:20:52;20.50;63.20
20487;DHT22;10402;49.012;8.370;2023-07-13T04:23:24;20.50;63.20
20487;DHT22;10402;49.012;8.370;2023-07-13T04:25:52;20.50;63.60
20487;DHT22;10402;49.012;8.370;2023-07-13T04:28:20;20.50;63.70
20487;DHT22;10402;49.012;8.370;2023-07-13T04:30:46;20.40;64.00
20487;DHT22;10402;49.012;8.370;2023-07-13T04:33:12;20.40;64.60
20487;DHT22;10402;49.012;8.370;2023-07-13T04:35:37;20.30;64.40
20487;DHT22;10402;49.012;8.370;2023-07-13T04:38:03;20.30;64.60
20487;DHT22;10402;49.012;8.370;2023-07-13T04:40:29;20.30;64.30
20487;DHT22;10402;49.012;8.370;2023-07-13T04:42:55;20.40;64.50
20487;DHT22;10402;49.012;8.370;2023-07-13T04:45:21;20.40;64.40
20487;DHT22;10402;49.012;8.370;2023-07-13T04:47:49;20.40;64.30
20487;DHT22;10402;49.012;8.370;2023-07-13T04:50:14;20.50;64.60
20487;DHT22;10402;49.012;8.370;2023-07-13T04:52:51;20.50;64.60
20487;DHT22;10402;49.012;8.370;2023-07-13T04:55:18;20.50;64.50
20487;DHT22;10402;49.012;8.370;2023-07-13T04:57:43;20.50;64.50
20487;DHT22;10402;49.012;8.370;2023-07-13T05:00:10;20.50;64.70
20487;DHT22;10402;49.012;8.370;2023-07-13T05:02:38;20.60;65.10
20487;DHT22;10402;49.012;8.370;2023-07-13T05:05:04;20.60;65.20
20487;DHT22;10402;49.012;8.370;2023-07-13T05:07:30;20.60;65.20
20487;DHT22;10402;49.012;8.370;2023-07-13T05:09:55;20.70;64.90
20487;DHT22;10402;49.012;8.370;2023-07-13T05:12:21;20.80;64.40
20487;DHT22;10402;49.012;8.370;2023-07-13T05:14:47;20.80;64.40
20487;DHT22;10402;49.012;8.370;2023-07-13T05:17:14;20.80;64.30
20487;DHT22;10402;49.012;8.370;2023-07-13T05:19:39;20.70;64.30
20487;DHT22;10402;49.012;8.370;2023-07-13T05:22:05;20.70;64.40
20487;DHT22;10402;49.012;8.370;2023-07-13T05:24:30;20.70;64.50
20487;DHT22;10402;49.012;8.370;2023-07-13T05:26:56;20.70;64.50
20487;DHT22;10402;49.012;8.370;2023-07-13T05:29:22;20.80;64.40
20487;DHT22;10402;49.012;8.370;2023-07-13T05:31:48;20.70;64.30
20487;DHT22;10402;49.012;8.370;2023-07-13T05:34:14;20.80;64.40
20487;DHT22;10402;49.012;8.370;2023-07-13T05:36:40;20.80;64.40
20487;DHT22;10402;49.012;8.370;2023-07-13T05:39:05;20.70;64.20
20487;DHT22;10402;49.012;8.370;2023-07-13T05:41:31;20.80;64.30
20487;DHT22;10402;49.012;8.370;2023-07-13T05:43:56;20.80;64.10
20487;DHT22;10402;49.012;8.370;2023-07-13T05:46:22;20.80;64.10
20487;DHT22;10402;49.012;8.370;2023-07-13T05:48:47;20.90;64.00
20487;DHT22;10402;49.012;8.370;2023-07-13T05:51:13;20.90;63.70
20487;DHT22;10402;49.012;8.370;2023-07-13T05:53:39;20.90;63.50
20487;DHT22;10402;49.012;8.370;2023-07-13T05:56:05;21.00;63.60
20487;DHT22;10402;49.012;8.370;2023-07-13T05:58:30;21.00;63.50
20487;DHT22;10402;49.012;8.370;2023-07-13T06:01:04;21.10;63.60
20487;DHT22;10402;49.012;8.370;2023-07-13T06:03:31;21.10;63.20
20487;DHT22;10402;49.012;8.370;2023-07-13T06:05:56;21.20;62.90
20487;DHT22;10402;49.012;8.370;2023-07-13T06:08:22;21.30;62.80
20487;DHT22;10402;49.012;8.370;2023-07-13T06:10:47;21.40;62.70
20487;DHT22;10402;49.012;8.370;2023-07-13T06:13:13;21.30;62.10
20487;DHT22;10402;49.012;8.370;2023-07-13T06:15:38;21.40;62.20
20487;DHT22;10402;49.012;8.370;2023-07-13T06:18:04;21.40;62.10
20487;DHT22;10402;49.012;8.370;2023-07-13T06:20:30;21.40;62.10
20487;DHT22;10402;49.012;8.370;2023-07-13T06:22:55;21.40;62.00
20487;DHT22;10402;49.012;8.370;2023-07-13T06:25:21;21.50;62.10
20487;DHT22;10402;49.012;8.370;2023-07-13T06:27:46;21.50;62.00
20487;DHT22;10402;49.012;8.370;2023-07-13T06:30:12;21.50;62.10
20487;DHT22;10402;49.012;8.370;2023-07-13T06:32:38;21.50;62.10
20487;DHT22;10402;49.012;8.370;2023-07-13T06:35:04;21.50;62.10
20487;DHT22;10402;49.012;8.370;2023-07-13T06:37:29;21.50;62.10
20487;DHT22;10402;49.012;8.370;2023-07-13T06:39:55;21.60;62.20
20487;DHT22;10402;49.012;8.370;2023-07-13T06:42:20;21.60;62.20
20487;DHT22;10402;49.012;8.370;2023-07-13T06:44:46;21.60;62.20
20487;DHT22;10402;49.012;8.370;2023-07-13T06:47:12;21.70;62.40
20487;DHT22;10402;49.012;8.370;2023-07-13T06:49:37;21.70;62.40
20487;DHT22;10402;49.012;8.370;2023-07-13T06:52:03;21.80;62.40
20487;DHT22;10402;49.012;8.370;2023-07-13T06:54:29;21.70;62.30
20487;DHT22;10402;49.012;8.370;2023-07-13T06:56:54;21.70;62.40
20487;DHT22;10402;49.012;8.370;2023-07-13T06:59:20;21.70;62.40
20487;DHT22;10402;49.012;8.370;2023-07-13T07:01:46;21.70;62.30
20487;DHT22;10402;49.012;8.370;2023-07-13T07:04:11;21.80;62.30
20487;DHT22;10402;49.012;8.370;2023-07-13T07:06:37;21.80;62.30
20487;DHT22;10402;49.012;8.370;2023-07-13T07:09:02;21.80;62.20
20487;DHT22;10402;49.012;8.370;2023-07-13T07:11:28;21.90;62.10
20487;DHT22;10402;49.012;8.370;2023-07-13T07:13:54;21.90;61.70
20487;DHT22;10402;49.012;8.370;2023-07-13T07:16:20;22.00;61.50
20487;DHT22;10402;49.012;8.370;2023-07-13T07:18:46;22.00;61.20
20487;DHT22;10402;49.012;8.370;2023-07-13T07:21:13;22.00;60.80
20487;DHT22;10402;49.012;8.370;2023-07-13T07:23:39;21.90;60.20
20487;DHT22;10402;49.012;8.370;2023-07-13T07:26:05;22.00;60.20
20487;DHT22;10402;49.012;8.370;2023-07-13T07:28:31;22.00;60.00
20487;DHT22;10402;49.012;8.370;2023-07-13T07:30:58;22.10;59.80
20487;DHT22;10402;49.012;8.370;2023-07-13T07:33:24;22.20;59.50
20487;DHT22;10402;49.012;8.370;2023-07-13T07:35:50;22.30;59.30
20487;DHT22;10402;49.012;8.370;2023-07-13T07:38:16;22.30;59.10
20487;DHT22;10402;49.012;8.370;2023-07-13T07:40:42;22.30;58.80
20487;DHT22;10402;49.012;8.370;2023-07-13T07:43:09;22.30;58.60
20487;DHT22;10402;49.012;8.370;2023-07-13T07:45:35;22.40;58.50
20487;DHT22;10402;49.012;8.370;2023-07-13T07:48:01;22.40;58.20
20487;DHT22;10402;49.012;8.370;2023-07-13T07:50:27;22.40;58.20
20487;DHT22;10402;49.012;8.370;2023-07-13T07:52:53;22.50;58.00
20487;DHT22;10402;49.012;8.370;2023-07-13T07:55:21;22.50;58.40
20487;DHT22;10402;49.012;8.370;2023-07-13T07:57:47;22.40;58.00
20487;DHT22;10402;49.012;8.370;2023-07-13T08:00:13;22.50;58.00
20487;DHT22;10402;49.012;8.370;2023-07-13T08:02:39;22.50;57.90
20487;DHT22;10402;49.012;8.370;2023-07-13T08:05:09;22.60;57.60
20487;DHT22;10402;49.012;8.370;2023-07-13T08:07:38;22.60;57.30
20487;DHT22;10402;49.012;8.370;2023-07-13T08:10:05;22.70;57.30
20487;DHT22;10402;49.012;8.370;2023-07-13T08:12:34;22.80;57.20
20487;DHT22;10402;49.012;8.370;2023-07-13T08:15:00;22.80;56.90
20487;DHT22;10402;49.012;8.370;2023-07-13T08:17:26;22.90;56.60
20487;DHT22;10402;49.012;8.370;2023-07-13T08:19:52;22.90;56.10
20487;DHT22;10402;49.012;8.370;2023-07-13T08:22:17;22.90;56.00
20487;DHT22;10402;49.012;8.370;2023-07-13T08:24:43;23.00;56.10
20487;DHT22;10402;49.012;8.370;2023-07-13T08:27:10;23.00;55.20
20487;DHT22;10402;49.012;8.370;2023-07-13T08:29:37;23.00;54.50
20487;DHT22;10402;49.012;8.370;2023-07-13T08:32:02;23.10;54.60
20487;DHT22;10402;49.012;8.370;2023-07-13T08:34:28;23.10;54.60
20487;DHT22;10402;49.012;8.370;2023-07-13T08:36:53;23.10;54.60
20487;DHT22;10402;49.012;8.370;2023-07-13T08:39:19;23.20;54.50
20487;DHT22;10402;49.012;8.370;2023-07-13T08:41:47;23.20;54.40
20487;DHT22;10402;49.012;8.370;2023-07-13T08:44:44;23.30;54.40
20487;DHT22;10402;49.012;8.370;2023-07-13T08:47:14;23.30;53.80
20487;DHT22;10402;49.012;8.370;2023-07-13T08:49:41;23.40;53.60
20487;DHT22;10402;49.012;8.370;2023-07-13T08:52:13;23.40;52.90
20487;DHT22;10402;49.012;8.370;2023-07-13T08:54:48;23.50;52.70
20487;DHT22;10402;49.012;8.370;2023-07-13T08:57:18;23.50;52.60
20487;DHT22;10402;49.012;8.370;2023-07-13T08:59:45;23.50;52.50
20487;DHT22;10402;49.012;8.370;2023-07-13T09:02:26;23.50;52.40
20487;DHT22;10402;49.012;8.370;2023-07-13T09:05:08;23.60;52.40
20487;DHT22;10402;49.012;8.370;2023-07-13T09:10:20;23.80;52.00
20487;DHT22;10402;49.012;8.370;2023-07-13T09:15:31;23.90;51.20
20487;DHT22;10402;49.012;8.370;2023-07-13T09:18:02;23.90;50.80
20487;DHT22;10402;49.012;8.370;2023-07-13T09:20:34;23.80;50.40
20487;DHT22;10402;49.012;8.370;2023-07-13T09:23:04;23.90;50.40
20487;DHT22;10402;49.012;8.370;2023-07-13T09:25:35;23.90;50.30
20487;DHT22;10402;49.012;8.370;2023-07-13T09:28:43;24.00;50.20
20487;DHT22;10402;49.012;8.370;2023-07-13T09:31:37;24.00;50.20
20487;DHT22;10402;49.012;8.370;2023-07-13T09:34:09;24.20;50.00
20487;DHT22;10402;49.012;8.370;2023-07-13T09:36:35;24.20;49.20
20487;DHT22;10402;49.012;8.370;2023-07-13T09:47:37;24.20;48.40
20487;DHT22;10402;49.012;8.370;2023-07-13T09:50:06;24.20;48.50
20487;DHT22;10402;49.012;8.370;2023-07-13T09:52:49;24.30;48.00
20487;DHT22;10402;49.012;8.370;2023-07-13T09:57:52;24.50;48.10
20487;DHT22;10402;49.012;8.370;2023-07-13T10:00:37;24.60;48.00
20487;DHT22;10402;49.012;8.370;2023-07-13T10:03:23;24.60;48.00
20487;DHT22;10402;49.012;8.370;2023-07-13T10:05:51;24.70;48.10
20487;DHT22;10402;49.012;8.370;2023-07-13T10:08:23;24.80;48.10
20487;DHT22;10402;49.012;8.370;2023-07-13T10:10:54;24.80;48.00
20487;DHT22;10402;49.012;8.370;2023-07-13T10:13:32;24.80;48.20
20487;DHT22;10402;49.012;8.370;2023-07-13T10:16:00;24.90;48.20
20487;DHT22;10402;49.012;8.370;2023-07-13T10:18:26;24.90;47.90
20487;DHT22;10402;49.012;8.370;2023-07-13T10:21:00;24.90;48.20
20487;DHT22;10402;49.012;8.370;2023-07-13T10:23:34;25.00;48.00
20487;DHT22;10402;49.012;8.370;2023-07-13T10:26:00;24.90;48.20
20487;DHT22;10402;49.012;8.370;2023-07-13T10:28:30;24.90;48.20
20487;DHT22;10402;49.012;8.370;2023-07-13T10:30:58;24.90;48.10
20487;DHT22;10402;49.012;8.370;2023-07-13T10:33:25;24.90;48.20
20487;DHT22;10402;49.012;8.370;2023-07-13T10:35:57;25.00;48.30
20487;DHT22;10402;49.012;8.370;2023-07-13T10:38:27;25.00;48.30
20487;DHT22;10402;49.012;8.370;2023-07-13T10:41:10;25.10;48.10
20487;DHT22;10402;49.012;8.370;2023-07-13T10:43:39;25.20;47.60
20487;DHT22;10402;49.012;8.370;2023-07-13T10:46:08;25.10;47.40
20487;DHT22;10402;49.012;8.370;2023-07-13T10:48:35;25.20;47.10
20487;DHT22;10402;49.012;8.370;2023-07-13T10:51:04;25.10;47.30
20487;DHT22;10402;49.012;8.370;2023-07-13T10:53:33;25.10;46.90
20487;DHT22;10402;49.012;8.370;2023-07-13T10:56:01;25.10;47.40
20487;DHT22;10402;49.012;8.370;2023-07-13T10:58:41;25.10;47.50
20487;DHT22;10402;49.012;8.370;2023-07-13T11:01:15;25.20;47.60
20487;DHT22;10402;49.012;8.370;2023-07-13T11:03:50;25.40;47.70
20487;DHT22;10402;49.012;8.370;2023-07-13T11:08:55;25.60;47.30
20487;DHT22;10402;49.012;8.370;2023-07-13T11:18:48;25.70;46.40
20487;DHT22;10402;49.012;8.370;2023-07-13T11:21:22;25.70;45.90
20487;DHT22;10402;49.012;8.370;2023-07-13T11:24:12;25.70;46.40
20487;DHT22;10402;49.012;8.370;2023-07-13T11:26:57;25.80;46.40
20487;DHT22;10402;49.012;8.370;2023-07-13T11:32:00;25.80;46.60
20487;DHT22;10402;49.012;8.370;2023-07-13T11:34:35;25.80;46.50
20487;DHT22;10402;49.012;8.370;2023-07-13T11:37:02;25.80;46.40
20487;DHT22;10402;49.012;8.370;2023-07-13T11:39:34;25.80;46.30
20487;DHT22;10402;49.012;8.370;2023-07-13T11:42:02;25.60;46.20
20487;DHT22;10402;49.012;8.370;2023-07-13T11:44:30;25.60;46.20
20487;DHT22;10402;49.012;8.370;2023-07-13T11:46:58;25.60;46.20
20487;DHT22;10402;49.012;8.370;2023-07-13T11:49:30;25.50;45.80
20487;DHT22;10402;49.012;8.370;2023-07-13T11:51:57;25.50;46.20
20487;DHT22;10402;49.012;8.370;2023-07-13T11:54:29;25.30;45.90
20487;DHT22;10402;49.012;8.370;2023-07-13T11:57:01;25.30;46.20
20487;DHT22;10402;49.012;8.370;2023-07-13T11:59:29;25.30;46.50
20487;DHT22;10402;49.012;8.370;2023-07-13T12:01:56;25.30;46.30
20487;DHT22;10402;49.012;8.370;2023-07-13T12:04:30;25.30;46.40
20487;DHT22;10402;49.012;8.370;2023-07-13T12:07:15;25.40;46.30
20487;DHT22;10402;49.012;8.370;2023-07-13T12:09:42;25.50;45.30
20487;DHT22;10402;49.012;8.370;2023-07-13T12:12:12;25.60;44.90
20487;DHT22;10402;49.012;8.370;2023-07-13T12:14:39;25.60;44.60
20487;DHT22;10402;49.012;8.370;2023-07-13T12:17:15;25.70;44.30
20487;DHT22;10402;49.012;8.370;2023-07-13T12:19:41;25.70;43.80
20487;DHT22;10402;49.012;8.370;2023-07-13T12:22:11;25.80;44.20
20487;DHT22;10402;49.012;8.370;2023-07-13T12:24:37;25.90;44.40
20487;DHT22;10402;49.012;8.370;2023-07-13T12:27:04;26.00;44.00
20487;DHT22;10402;49.012;8.370;2023-07-13T12:29:32;26.00;43.90
20487;DHT22;10402;49.012;8.370;2023-07-13T12:31:58;26.00;43.80
20487;DHT22;10402;49.012;8.370;2023-07-13T12:34:26;26.10;43.70
20487;DHT22;10402;49.012;8.370;2023-07-13T12:37:00;26.20;43.60
20487;DHT22;10402;49.012;8.370;2023-07-13T12:39:36;26.20;43.20
20487;DHT22;10402;49.012;8.370;2023-07-13T12:42:26;26.30;43.10
20487;DHT22;10402;49.012;8.370;2023-07-13T12:47:23;26.40;42.70
20487;DHT22;10402;49.012;8.370;2023-07-13T12:49:53;26.40;42.60
20487;DHT22;10402;49.012;8.370;2023-07-13T12:52:24;26.40;42.40
20487;DHT22;10402;49.012;8.370;2023-07-13T12:54:59;26.40;42.20
20487;DHT22;10402;49.012;8.370;2023-07-13T12:57:26;26.50;42.20
20487;DHT22;10402;49.012;8.370;2023-07-13T12:59:55;26.50;41.90
20487;DHT22;10402;49.012;8.370;2023-07-13T13:02:32;26.50;42.60
20487;DHT22;10402;49.012;8.370;2023-07-13T13:05:00;26.50;41.90
20487;DHT22;10402;49.012;8.370;2023-07-13T13:07:26;26.60;41.70
20487;DHT22;10402;49.012;8.370;2023-07-13T13:09:52;26.60;41.40
20487;DHT22;10402;49.012;8.370;2023-07-13T13:12:22;26.70;41.00
20487;DHT22;10402;49.012;8.370;2023-07-13T13:14:49;26.60;40.50
20487;DHT22;10402;49.012;8.370;2023-07-13T13:17:28;26.50;40.80
20487;DHT22;10402;49.012;8.370;2023-07-13T13:19:54;26.50;40.30
20487;DHT22;10402;49.012;8.370;2023-07-13T13:22:21;26.40;40.80
20487;DHT22;10402;49.012;8.370;2023-07-13T13:24:46;26.50;41.20
20487;DHT22;10402;49.012;8.370;2023-07-13T13:27:17;26.70;41.00
20487;DHT22;10402;49.012;8.370;2023-07-13T13:29:44;26.80;41.00
20487;DHT22;10402;49.012;8.370;2023-07-13T13:32:13;26.80;40.70
20487;DHT22;10402;49.012;8.370;2023-07-13T13:34:39;26.80;40.40
20487;DHT22;10402;49.012;8.370;2023-07-13T13:37:21;26.80;39.50
20487;DHT22;10402;49.012;8.370;2023-07-13T13:39:48;26.80;39.70
20487;DHT22;10402;49.012;8.370;2023-07-13T13:42:14;26.90;39.70
20487;DHT22;10402;49.012;8.370;2023-07-13T13:44:40;26.90;39.50
20487;DHT22;10402;49.012;8.370;2023-07-13T13:47:31;26.90;38.70
20487;DHT22;10402;49.012;8.370;2023-07-13T13:49:58;26.80;39.20
20487;DHT22;10402;49.012;8.370;2023-07-13T13:52:24;26.80;39.40
20487;DHT22;10402;49.012;8.370;2023-07-13T13:54:51;26.80;39.20
20487;DHT22;10402;49.012;8.370;2023-07-13T13:57:22;26.80;39.40
20487;DHT22;10402;49.012;8.370;2023-07-13T13:59:48;26.70;39.20
20487;DHT22;10402;49.012;8.370;2023-07-13T14:02:26;26.70;38.80
20487;DHT22;10402;49.012;8.370;2023-07-13T14:04:58;26.70;39.10
20487;DHT22;10402;49.012;8.370;2023-07-13T14:07:25;26.80;39.20
20487;DHT22;10402;49.012;8.370;2023-07-13T14:09:52;26.70;39.20
20487;DHT22;10402;49.012;8.370;2023-07-13T14:12:18;26.70;39.80
20487;DHT22;10402;49.012;8.370;2023-07-13T14:14:44;26.70;39.10
20487;DHT22;10402;49.012;8.370;2023-07-13T14:17:22;26.70;39.20
20487;DHT22;10402;49.012;8.370;2023-07-13T14:19:50;26.70;39.10
20487;DHT22;10402;49.012;8.370;2023-07-13T14:22:17;26.80;39.10
20487;DHT22;10402;49.012;8.370;2023-07-13T14:24:43;26.80;39.40
20487;DHT22;10402;49.012;8.370;2023-07-13T14:27:11;26.80;39.40
20487;DHT22;10402;49.012;8.370;2023-07-13T14:29:37;26.80;39.20
20487;DHT22;10402;49.012;8.370;2023-07-13T14:32:03;26.70;39.40
20487;DHT22;10402;49.012;8.370;2023-07-13T14:34:30;26.70;39.40
20487;DHT22;10402;49.012;8.370;2023-07-13T14:36:56;26.60;39.40
20487;DHT22;10402;49.012;8.370;2023-07-13T14:39:23;26.60;39.80
20487;DHT22;10402;49.012;8.370;2023-07-13T14:41:51;26.50;39.70
20487;DHT22;10402;49.012;8.370;2023-07-13T14:44:24;26.50;40.00
20487;DHT22;10402;49.012;8.370;2023-07-13T14:46:50;26.40;39.70
20487;DHT22;10402;49.012;8.370;2023-07-13T14:49:30;26.40;40.10
20487;DHT22;10402;49.012;8.370;2023-07-13T14:51:58;26.40;40.20
20487;DHT22;10402;49.012;8.370;2023-07-13T14:54:25;26.40;40.40
20487;DHT22;10402;49.012;8.370;2023-07-13T14:56:50;26.40;40.50
20487;DHT22;10402;49.012;8.370;2023-07-13T14:59:16;26.50;40.60
20487;DHT22;10402;49.012;8.370;2023-07-13T15:01:45;26.60;40.50
20487;DHT22;10402;49.012;8.370;2023-07-13T15:04:11;26.70;40.50
20487;DHT22;10402;49.012;8.370;2023-07-13T15:09:21;26.80;40.20
20487;DHT22;10402;49.012;8.370;2023-07-13T15:11:46;26.80;40.20
20487;DHT22;10402;49.012;8.370;2023-07-13T15:14:12;26.80;40.10
20487;DHT22;10402;49.012;8.370;2023-07-13T15:16:38;26.80;40.30
20487;DHT22;10402;49.012;8.370;2023-07-13T15:19:03;26.80;40.50
20487;DHT22;10402;49.012;8.370;2023-07-13T15:21:29;26.80;40.50
20487;DHT22;10402;49.012;8.370;2023-07-13T15:24:00;26.90;40.60
20487;DHT22;10402;49.012;8.370;2023-07-13T15:26:26;26.90;40.60
20487;DHT22;10402;49.012;8.370;2023-07-13T15:28:52;26.90;40.50
20487;DHT22;10402;49.012;8.370;2023-07-13T15:31:24;26.90;40.50
20487;DHT22;10402;49.012;8.370;2023-07-13T15:33:55;26.80;40.40
20487;DHT22;10402;49.012;8.370;2023-07-13T15:36:22;26.60;40.80
20487;DHT22;10402;49.012;8.370;2023-07-13T15:38:48;26.60;40.70
20487;DHT22;10402;49.012;8.370;2023-07-13T15:41:26;26.60;40.90
20487;DHT22;10402;49.012;8.370;2023-07-13T15:43:54;26.60;40.90
20487;DHT22;10402;49.012;8.370;2023-07-13T15:46:22;26.70;40.70
20487;DHT22;10402;49.012;8.370;2023-07-13T15:48:49;26.60;40.40
20487;DHT22;10402;49.012;8.370;2023-07-13T15:51:24;26.50;40.40
20487;DHT22;10402;49.012;8.370;2023-07-13T15:53:53;26.50;40.80
20487;DHT22;10402;49.012;8.370;2023-07-13T15:56:26;26.50;40.30
20487;DHT22;10402;49.012;8.370;2023-07-13T15:58:52;26.50;40.70
20487;DHT22;10402;49.012;8.370;2023-07-13T16:01:18;26.50;40.70
20487;DHT22;10402;49.012;8.370;2023-07-13T16:03:47;26.50;40.80
20487;DHT22;10402;49.012;8.370;2023-07-13T16:06:19;26.60;40.80
20487;DHT22;10402;49.012;8.370;2023-07-13T16:08:48;26.60;40.60
20487;DHT22;10402;49.012;8.370;2023-07-13T16:11:35;26.60;40.40
20487;DHT22;10402;49.012;8.370;2023-07-13T16:14:02;26.50;40.50